Time;durP1;ratioP1;P1;durP2;ratioP2;P2;SDS_P1;SDS_P2;PMS_P1;PMS_P2;Temp;Humidity;BMP_temperature;BMP_pressure;BME280_temperature;BME280_humidity;BME280_pressure;Samples;Min_cycle;Max_cycle;Signal;HPM_P1;HPM_P2
2023/10/28 00:00:17;;;;;;;2.05;0.50;;;;;;;8.08;100.00;91603.44;2107009;28;20020;-81
2023/10/28 00:01:18;;;;;;;1.58;0.65;;;;;;;8.07;100.00;91615.22;2099184;28;20078;-81
2023/10/28 00:02:20;;;;;;;3.15;0.88;;;;;;;8.07;100.00;91615.97;2098706;28;20079;-80
2023/10/28 00:03:21;;;;;;;3.08;0.80;;;;;;;7.99;100.00;91609.44;2082613;28;20080;-81
2023/10/28 00:04:24;;;;;;;3.33;0.82;;;;;;;8.10;100.00;91610.97;2098645;28;20024;-80
2023/10/28 00:05:25;;;;;;;3.03;0.70;;;;;;;8.25;100.00;91603.91;2098779;28;20033;-80
2023/10/28 00:06:25;;;;;;;3.28;0.80;;;;;;;8.17;100.00;91605.38;2098644;28;20461;-80
2023/10/28 00:07:33;;;;;;;2.88;0.70;;;;;;;8.07;100.00;91613.31;2098747;28;20055;-79
2023/10/28 00:08:35;;;;;;;3.42;0.70;;;;;;;8.01;100.00;91609.72;2099627;28;20401;-81
2023/10/28 00:09:36;;;;;;;1.95;0.70;;;;;;;8.02;100.00;91613.13;2098815;28;20040;-80
2023/10/28 00:10:37;;;;;;;4.75;1.00;;;;;;;7.93;100.00;91611.16;2097982;28;20064;-81
2023/10/28 00:11:38;;;;;;;4.18;0.90;;;;;;;8.03;100.00;91612.72;2106907;28;20028;-80
2023/10/28 00:12:40;;;;;;;7.53;0.90;;;;;;;7.97;100.00;91608.38;2106950;28;20035;-81
2023/10/28 00:13:41;;;;;;;4.05;0.95;;;;;;;8.01;100.00;91609.72;2106959;28;20575;-79
2023/10/28 00:14:42;;;;;;;5.07;0.95;;;;;;;7.99;100.00;91603.34;2106583;28;20024;-81
2023/10/28 00:15:43;;;;;;;6.20;0.70;;;;;;;7.92;100.00;91611.59;2098440;28;20051;-80
2023/10/28 00:16:44;;;;;;;5.47;1.38;;;;;;;7.94;100.00;91607.31;2101929;28;20020;-82
2023/10/28 00:17:47;;;;;;;3.17;0.82;;;;;;;7.94;100.00;91602.00;2112938;28;20019;-81
2023/10/28 00:18:49;;;;;;;6.18;1.23;;;;;;;7.99;100.00;91596.13;2101616;28;20954;-80
2023/10/28 00:19:50;;;;;;;4.45;0.70;;;;;;;8.01;100.00;91603.69;2102018;28;20074;-80
2023/10/28 00:20:51;;;;;;;8.35;1.30;;;;;;;8.05;100.00;91601.63;2111374;28;20068;-80
2023/10/28 00:21:52;;;;;;;4.57;0.90;;;;;;;7.96;100.00;91599.66;2115362;28;20022;-81
2023/10/28 00:22:53;;;;;;;4.38;0.77;;;;;;;7.93;100.00;91605.84;2109607;28;20058;-81
2023/10/28 00:23:56;;;;;;;2.13;0.85;;;;;;;8.08;100.00;91592.78;2115372;28;20414;-82
2023/10/28 00:24:58;;;;;;;7.53;1.40;;;;;;;7.90;100.00;91595.31;2115242;28;20072;-80
2023/10/28 00:26:01;;;;;;;5.28;1.25;;;;;;;7.94;100.00;91585.31;2115915;27;20390;-79
2023/10/28 00:27:02;;;;;;;5.32;1.05;;;;;;;7.94;100.00;91599.34;2110565;27;20027;-81
2023/10/28 00:28:04;;;;;;;5.28;1.02;;;;;;;7.96;100.00;91593.59;2092191;27;20053;-79
2023/10/28 00:29:06;;;;;;;7.53;1.10;;;;;;;7.89;100.00;91602.56;2033450;27;20483;-80
2023/10/28 00:30:10;;;;;;;13.88;1.77;;;;;;;8.02;100.00;91594.50;2037363;28;20028;-80
2023/10/28 00:31:17;;;;;;;7.70;1.33;;;;;;;7.86;100.00;91600.81;2042304;28;20310;-78
2023/10/28 00:32:22;;;;;;;5.90;0.90;;;;;;;7.78;100.00;91610.22;2057913;28;20467;-81
2023/10/28 00:33:23;;;;;;;5.88;0.95;;;;;;;7.84;100.00;91611.13;2059291;27;20107;-83
2023/10/28 00:34:24;;;;;;;5.90;1.10;;;;;;;7.95;100.00;91600.09;2065834;28;20024;-81
2023/10/28 00:35:28;;;;;;;5.03;0.90;;;;;;;7.88;100.00;91613.66;2075961;28;20024;-79
2023/10/28 00:36:28;;;;;;;7.18;1.00;;;;;;;7.81;100.00;91609.31;2098516;27;21687;-80
2023/10/28 00:37:29;;;;;;;4.07;1.60;;;;;;;7.84;100.00;91619.09;2118954;27;20027;-80
2023/10/28 00:38:30;;;;;;;5.95;1.00;;;;;;;7.95;100.00;91614.16;2132177;27;20476;-81
2023/10/28 00:39:31;;;;;;;3.08;0.82;;;;;;;8.03;100.00;91610.06;2115163;28;20027;-81
2023/10/28 00:40:32;;;;;;;7.68;1.10;;;;;;;7.92;100.00;91623.00;2108946;28;20049;-80
2023/10/28 00:41:33;;;;;;;3.28;0.80;;;;;;;7.92;100.00;91627.56;2115195;28;20076;-80
2023/10/28 00:42:35;;;;;;;5.38;1.27;;;;;;;7.98;100.00;91618.56;2106712;28;20028;-80
2023/10/28 00:43:36;;;;;;;10.32;1.33;;;;;;;8.00;100.00;91615.50;2108218;28;20031;-81
2023/10/28 00:44:37;;;;;;;5.70;0.77;;;;;;;8.07;100.00;91621.28;2106647;28;20077;-82
2023/10/28 00:45:39;;;;;;;5.82;0.90;;;;;;;8.01;100.00;91630.28;2115176;28;20456;-80
2023/10/28 00:46:40;;;;;;;7.85;1.38;;;;;;;7.99;100.00;91625.41;2114697;27;20068;-82
2023/10/28 00:47:48;;;;;;;1.55;0.80;;;;;;;7.88;100.00;91635.69;2115723;28;20726;-80
2023/10/28 00:48:49;;;;;;;17.98;1.52;;;;;;;7.77;100.00;91624.66;2115697;28;20031;-79
2023/10/28 00:49:51;;;;;;;9.10;1.40;;;;;;;7.79;100.00;91631.03;2116889;27;20011;-81
2023/10/28 00:50:54;;;;;;;6.95;1.15;;;;;;;7.95;100.00;91635.44;2106599;28;20629;-80
2023/10/28 00:51:55;;;;;;;4.60;1.00;;;;;;;7.98;100.00;91636.47;2107372;27;20020;-79
2023/10/28 00:52:58;;;;;;;4.75;1.30;;;;;;;7.89;100.00;91631.84;2106484;28;20071;-80
2023/10/28 00:54:00;;;;;;;5.20;0.90;;;;;;;7.92;100.00;91628.31;2107057;28;20024;-82
2023/10/28 00:55:01;;;;;;;5.05;1.50;;;;;;;7.98;100.00;91618.56;2115191;27;20023;-80
2023/10/28 00:56:02;;;;;;;7.40;1.17;;;;;;;7.82;100.00;91622.19;2115114;28;20023;-79
2023/10/28 00:57:03;;;;;;;7.63;1.10;;;;;;;7.96;100.00;91614.88;2106772;28;20074;-80
2023/10/28 00:58:05;;;;;;;6.32;1.38;;;;;;;8.05;100.00;91615.66;2122702;27;20478;-81
2023/10/28 00:59:07;;;;;;;11.18;1.83;;;;;;;7.99;100.00;91620.09;2115170;27;20023;-80
2023/10/28 01:00:10;;;;;;;6.85;1.05;;;;;;;8.00;100.00;91618.16;2107866;28;20016;-81
2023/10/28 01:01:13;;;;;;;8.23;1.35;;;;;;;7.98;100.00;91626.56;2095101;28;20028;-81
2023/10/28 01:02:14;;;;;;;3.67;0.90;;;;;;;7.97;100.00;91619.03;2097499;28;20040;-81
2023/10/28 01:03:16;;;;;;;4.78;1.40;;;;;;;7.99;100.00;91628.06;2106203;28;20087;-80
2023/10/28 01:04:17;;;;;;;2.63;0.90;;;;;;;7.99;100.00;91619.31;2122912;27;20099;-79
2023/10/28 01:05:19;;;;;;;3.10;0.90;;;;;;;7.97;100.00;91624.34;2123244;27;20118;-81
2023/10/28 01:06:20;;;;;;;4.82;1.23;;;;;;;7.99;100.00;91617.44;2114925;28;20408;-81
2023/10/28 01:07:21;;;;;;;7.20;1.13;;;;;;;8.03;100.00;91614.59;2115016;28;20027;-82
2023/10/28 01:08:22;;;;;;;9.02;1.17;;;;;;;8.04;100.00;91616.84;2114810;28;20019;-81
2023/10/28 01:09:23;;;;;;;8.20;1.42;;;;;;;8.04;100.00;91611.53;2106528;28;20058;-80
2023/10/28 01:10:28;;;;;;;10.20;1.33;;;;;;;8.05;100.00;91617.59;2106485;28;20051;-80
2023/10/28 01:11:29;;;;;;;7.50;0.90;;;;;;;8.03;100.00;91615.38;2107239;28;20028;-79
2023/10/28 01:12:30;;;;;;;9.25;1.27;;;;;;;8.07;100.00;91615.97;2114893;28;20024;-81
2023/10/28 01:13:31;;;;;;;4.32;1.05;;;;;;;8.13;100.00;91613.50;2114974;28;20062;-82
2023/10/28 01:14:32;;;;;;;6.43;1.00;;;;;;;8.06;100.00;91624.38;2114955;28;20065;-80
2023/10/28 01:15:33;;;;;;;4.57;0.98;;;;;;;8.01;100.00;91623.03;2106465;28;20122;-80
2023/10/28 01:16:35;;;;;;;4.90;0.90;;;;;;;7.92;100.00;91630.22;2106676;28;20058;-82
2023/10/28 01:17:35;;;;;;;7.07;1.05;;;;;;;8.13;100.00;91626.81;2118745;27;20026;-80
2023/10/28 01:18:36;;;;;;;4.07;0.90;;;;;;;8.01;100.00;91628.34;2118721;27;20026;-81
2023/10/28 01:19:37;;;;;;;4.28;0.98;;;;;;;8.03;100.00;91620.69;2117968;27;20045;-81
2023/10/28 01:20:38;;;;;;;10.75;1.50;;;;;;;8.06;100.00;91624.38;2009146;28;20102;-81
2023/10/28 01:21:40;;;;;;;4.60;0.80;;;;;;;8.16;100.00;91623.25;2022816;28;20703;-80
2023/10/28 01:22:50;;;;;;;5.40;1.13;;;;;;;8.17;100.00;91618.69;2029896;28;20069;-81
2023/10/28 01:23:51;;;;;;;4.80;1.10;;;;;;;8.23;100.00;91624.91;2034180;28;20105;-80
2023/10/28 01:24:52;;;;;;;3.80;0.93;;;;;;;8.31;100.00;91618.91;2048178;28;20434;-81
2023/10/28 01:25:53;;;;;;;2.42;0.80;;;;;;;8.17;100.00;91624.00;2052791;28;20035;-79
2023/10/28 01:26:54;;;;;;;9.85;1.00;;;;;;;8.16;100.00;91633.91;2055790;28;20024;-80
2023/10/28 01:27:55;;;;;;;4.35;1.02;;;;;;;8.25;100.00;91630.53;2066128;28;21523;-80
2023/10/28 01:28:56;;;;;;;5.97;1.20;;;;;;;8.22;100.00;91629.50;2087442;27;20058;-79
2023/10/28 01:29:58;;;;;;;5.30;1.02;;;;;;;8.28;100.00;91630.41;2101401;27;20031;-81
2023/10/28 01:31:00;;;;;;;6.32;1.20;;;;;;;8.28;100.00;91635.00;2105501;27;20173;-80
2023/10/28 01:32:03;;;;;;;8.63;1.38;;;;;;;8.36;100.00;91635.47;2113477;27;20050;-81
2023/10/28 01:33:03;;;;;;;8.35;1.45;;;;;;;8.37;100.00;91632.41;2123337;27;20732;-81
2023/10/28 01:34:04;;;;;;;6.32;1.65;;;;;;;8.43;100.00;91641.31;2123213;27;20031;-80
2023/10/28 01:35:07;;;;;;;5.53;1.05;;;;;;;8.44;100.00;91637.47;2122305;27;20057;-81
2023/10/28 01:36:08;;;;;;;5.43;1.20;;;;;;;8.51;100.00;91631.84;2123269;27;20475;-80
2023/10/28 01:37:09;;;;;;;9.02;0.93;;;;;;;8.50;100.00;91635.69;2114788;27;20047;-83
2023/10/28 01:38:10;;;;;;;4.85;1.02;;;;;;;8.46;100.00;91639.69;2106224;28;20447;-82
2023/10/28 01:39:12;;;;;;;5.97;1.30;;;;;;;8.73;100.00;91639.03;2114718;28;20016;-81
2023/10/28 01:40:13;;;;;;;6.13;1.10;;;;;;;8.58;100.00;91639.59;2123183;27;20023;-81
2023/10/28 01:41:14;;;;;;;6.97;1.02;;;;;;;8.54;100.00;91638.25;2122913;27;20504;-81
2023/10/28 01:42:16;;;;;;;11.02;1.30;;;;;;;8.52;100.00;91636.03;2122990;27;20026;-81
2023/10/28 01:43:23;;;;;;;4.43;1.00;;;;;;;8.56;100.00;91633.97;2114915;28;20047;-79
2023/10/28 01:44:25;;;;;;;4.28;1.00;;;;;;;8.62;100.00;91642.13;2114470;28;20031;-79
2023/10/28 01:45:26;;;;;;;6.82;1.52;;;;;;;8.67;100.00;91638.88;2106696;28;20030;-82
2023/10/28 01:46:29;;;;;;;6.50;1.27;;;;;;;8.78;100.00;91636.56;2106196;28;20778;-81
2023/10/28 01:47:30;;;;;;;10.02;1.38;;;;;;;8.69;100.00;91627.78;2106675;28;20494;-80
2023/10/28 01:48:31;;;;;;;6.32;1.48;;;;;;;8.63;100.00;91638.28;2123169;27;20027;-80
2023/10/28 01:49:32;;;;;;;5.95;1.10;;;;;;;8.70;100.00;91645.25;2114579;28;20093;-81
2023/10/28 01:50:33;;;;;;;3.33;0.95;;;;;;;8.68;100.00;91634.28;2103197;28;20412;-80
2023/10/28 01:51:34;;;;;;;9.25;2.00;;;;;;;8.60;100.00;91638.41;2106118;28;20056;-80
2023/10/28 01:52:35;;;;;;;6.82;1.13;;;;;;;8.55;100.00;91634.38;2123089;27;20015;-81
2023/10/28 01:53:36;;;;;;;4.88;1.73;;;;;;;8.65;100.00;91637.81;2114266;28;20020;-81
2023/10/28 01:54:37;;;;;;;5.70;0.90;;;;;;;8.71;100.00;91641.41;2116719;27;20516;-80
2023/10/28 01:55:38;;;;;;;6.45;1.00;;;;;;;8.84;100.00;91639.38;2123253;27;20026;-81
2023/10/28 01:56:39;;;;;;;7.72;1.10;;;;;;;8.82;100.00;91628.41;2119947;27;20031;-79
2023/10/28 01:57:40;;;;;;;9.57;1.92;;;;;;;8.89;100.00;91630.78;2113164;28;20473;-78
2023/10/28 01:58:41;;;;;;;5.90;1.10;;;;;;;8.85;100.00;91632.84;2113692;28;20031;-81
2023/10/28 01:59:44;;;;;;;5.63;1.20;;;;;;;8.88;100.00;91617.91;2128605;27;20023;-81
2023/10/28 02:00:45;;;;;;;4.63;0.80;;;;;;;9.11;100.00;91629.94;2114563;28;20019;-79
2023/10/28 02:01:46;;;;;;;12.88;1.50;;;;;;;9.06;100.00;91625.94;2106218;27;20102;-80
2023/10/28 02:02:47;;;;;;;4.45;0.82;;;;;;;9.03;100.00;91624.88;2106303;28;20065;-80
2023/10/28 02:03:55;;;;;;;12.30;2.08;;;;;;;8.98;100.00;91622.81;2114734;28;20019;-80
2023/10/28 02:04:56;;;;;;;5.68;1.20;;;;;;;8.91;100.00;91625.00;2122871;27;20019;-81
2023/10/28 02:05:56;;;;;;;4.15;1.60;;;;;;;8.86;100.00;91618.34;2122949;27;20030;-81
2023/10/28 02:06:58;;;;;;;2.17;0.90;;;;;;;8.81;100.00;91621.59;2123764;27;20019;-80
2023/10/28 02:07:59;;;;;;;6.47;1.63;;;;;;;8.92;100.00;91626.53;2114486;28;20031;-81
2023/10/28 02:09:00;;;;;;;4.57;1.10;;;;;;;8.90;100.00;91623.53;2114665;28;20019;-79
2023/10/28 02:10:02;;;;;;;5.80;1.13;;;;;;;8.80;100.00;91625.44;2122920;27;20023;-80
2023/10/28 02:11:03;;;;;;;7.22;0.90;;;;;;;8.87;100.00;91627.06;2122082;27;20087;-82
2023/10/28 02:12:08;;;;;;;6.55;1.23;;;;;;;8.89;100.00;91620.13;2122966;27;20468;-80
2023/10/28 02:13:10;;;;;;;6.35;1.10;;;;;;;8.83;100.00;91629.91;2114917;27;20036;-81
2023/10/28 02:14:11;;;;;;;4.45;0.85;;;;;;;8.76;100.00;91619.50;2114641;28;20031;-80
2023/10/28 02:15:13;;;;;;;10.13;1.20;;;;;;;8.69;100.00;91622.44;2114294;27;20376;-80
2023/10/28 02:16:14;;;;;;;3.85;0.75;;;;;;;8.75;100.00;91626.03;2117527;27;20402;-82
2023/10/28 02:17:15;;;;;;;4.93;0.77;;;;;;;8.62;100.00;91631.47;2122929;27;20027;-82
2023/10/28 02:18:18;;;;;;;4.95;0.75;;;;;;;8.74;100.00;91627.22;2131354;27;20026;-82
2023/10/28 02:19:21;;;;;;;3.67;1.00;;;;;;;8.71;100.00;91614.78;2122891;27;20023;-81
2023/10/28 02:20:21;;;;;;;4.05;1.00;;;;;;;8.66;100.00;91621.41;2111969;28;20051;-81
2023/10/28 02:21:22;;;;;;;8.32;1.08;;;;;;;8.64;100.00;91631.75;2110971;28;20016;-81
2023/10/28 02:23:52;;;;;;;;;;;;;;;8.15;100.00;91619.13;2149010;27;20110;-84
2023/10/28 02:24:53;;;;;;;4.82;0.98;;;;;;;8.25;100.00;91633.97;2122791;27;19911;-82
2023/10/28 02:25:54;;;;;;;3.72;1.10;;;;;;;8.24;100.00;91631.72;2113755;27;20058;-85
2023/10/28 02:26:55;;;;;;;6.13;1.02;;;;;;;8.21;100.00;91635.25;2105644;28;20069;-86
2023/10/28 02:28:03;;;;;;;5.72;0.88;;;;;;;8.20;100.00;91642.50;2107240;28;20020;-81
2023/10/28 02:29:04;;;;;;;3.15;0.77;;;;;;;8.05;100.00;91636.97;2103956;27;20023;-80
2023/10/28 02:30:11;;;;;;;7.20;1.50;;;;;;;8.23;100.00;91632.91;2118580;27;20019;-83
2023/10/28 02:31:12;;;;;;;2.83;0.75;;;;;;;8.40;100.00;91630.78;2109021;28;20024;-85
2023/10/28 02:32:13;;;;;;;3.90;0.73;;;;;;;8.54;100.00;91636.31;2111131;28;20598;-83
2023/10/28 02:33:14;;;;;;;2.15;0.80;;;;;;;8.27;100.00;91641.50;2113578;27;20015;-81
2023/10/28 02:34:15;;;;;;;5.90;1.00;;;;;;;8.23;100.00;91627.59;2121938;27;20021;-87
2023/10/28 02:35:16;;;;;;;4.53;0.90;;;;;;;8.33;100.00;91635.16;2120871;27;20024;-85
2023/10/28 02:36:17;;;;;;;2.47;0.63;;;;;;;8.42;100.00;91644.41;2121936;27;20080;-83
2023/10/28 02:37:19;;;;;;;2.75;0.77;;;;;;;8.43;100.00;91643.97;2130516;27;20122;-84
2023/10/28 02:38:20;;;;;;;3.97;0.82;;;;;;;8.40;100.00;91644.09;2113511;27;20115;-85
2023/10/28 02:39:21;;;;;;;3.75;0.50;;;;;;;8.35;100.00;91642.72;2113289;27;20021;-87
2023/10/28 02:40:22;;;;;;;2.33;0.50;;;;;;;8.42;100.00;91633.75;2121663;28;20047;-85
2023/10/28 02:41:23;;;;;;;6.90;2.35;;;;;;;8.38;100.00;91643.78;2113092;28;20031;-82
2023/10/28 02:42:24;;;;;;;3.97;0.75;;;;;;;8.42;100.00;91645.13;2104822;28;20032;-83
2023/10/28 02:43:25;;;;;;;5.93;0.95;;;;;;;8.37;100.00;91643.03;2113226;27;20102;-82
2023/10/28 02:44:26;;;;;;;3.45;0.73;;;;;;;8.31;100.00;91642.13;2121711;28;20016;-83
2023/10/28 02:45:27;;;;;;;3.30;0.70;;;;;;;8.53;100.00;91632.16;2119769;27;20026;-85
2023/10/28 02:46:28;;;;;;;3.85;0.80;;;;;;;8.62;100.00;91642.13;2113447;28;20376;-84
2023/10/28 02:47:33;;;;;;;6.35;0.90;;;;;;;8.61;100.00;91637.25;2112361;28;20016;-85
2023/10/28 02:48:35;;;;;;;2.75;0.75;;;;;;;8.61;100.00;91635.31;2112860;28;20024;-83
2023/10/28 02:49:37;;;;;;;4.47;0.90;;;;;;;8.64;100.00;91636.34;2105479;28;20020;-84
2023/10/28 02:50:38;;;;;;;4.68;0.90;;;;;;;8.54;100.00;91641.63;2104599;28;20047;-82
2023/10/28 02:51:42;;;;;;;4.25;0.77;;;;;;;8.40;100.00;91633.47;2115744;27;20030;-82
2023/10/28 02:52:43;;;;;;;4.35;0.60;;;;;;;8.47;100.00;91631.28;2128336;27;20023;-82
2023/10/28 02:53:44;;;;;;;2.13;0.85;;;;;;;8.54;100.00;91632.91;2114840;27;20016;-81
2023/10/28 02:54:45;;;;;;;2.47;0.65;;;;;;;8.45;100.00;91630.97;2109210;28;20514;-83
2023/10/28 02:55:46;;;;;;;2.63;0.63;;;;;;;8.38;100.00;91625.88;2119026;28;20102;-82
2023/10/28 02:56:47;;;;;;;5.30;0.70;;;;;;;8.49;100.00;91636.88;2105087;28;20032;-83
2023/10/28 02:57:48;;;;;;;2.25;0.80;;;;;;;8.44;100.00;91634.06;2121810;27;20453;-85
2023/10/28 02:58:49;;;;;;;5.22;1.02;;;;;;;8.53;100.00;91631.44;2118265;28;20086;-83
2023/10/28 02:59:50;;;;;;;2.28;0.70;;;;;;;8.52;100.00;91620.03;2103495;28;20027;-83
2023/10/28 03:00:51;;;;;;;4.88;0.80;;;;;;;8.30;100.00;91630.00;2110465;28;20023;-84
2023/10/28 03:01:52;;;;;;;2.72;1.45;;;;;;;8.36;100.00;91622.91;2112590;28;20547;-85
2023/10/28 03:02:55;;;;;;;2.67;0.95;;;;;;;8.32;100.00;91635.59;2096460;28;20021;-86
2023/10/28 03:03:56;;;;;;;3.38;0.90;;;;;;;8.40;100.00;91628.13;2105375;28;20024;-87
2023/10/28 03:04:58;;;;;;;3.38;0.60;;;;;;;8.30;100.00;91627.34;2104787;28;20028;-80
2023/10/28 03:06:00;;;;;;;4.88;0.90;;;;;;;8.13;100.00;91626.81;2113232;27;20035;-81
2023/10/28 03:07:01;;;;;;;2.17;0.80;;;;;;;8.52;100.00;91633.38;2113383;28;20115;-83
2023/10/28 03:08:02;;;;;;;4.25;0.90;;;;;;;8.27;100.00;91628.94;2096665;28;20127;-83
2023/10/28 03:09:04;;;;;;;4.03;0.80;;;;;;;8.39;100.00;91630.06;2104812;28;20028;-83
2023/10/28 03:10:05;;;;;;;2.10;0.80;;;;;;;8.41;100.00;91627.69;2096303;28;20032;-85
2023/10/28 03:11:06;;;;;;;3.03;0.75;;;;;;;8.37;100.00;91639.66;2101366;28;20012;-81
2023/10/28 03:12:07;;;;;;;3.00;0.68;;;;;;;8.22;100.00;91631.44;2113099;27;20027;-82
2023/10/28 03:13:08;;;;;;;1.15;0.77;;;;;;;8.28;100.00;91637.66;2113137;28;20023;-83
2023/10/28 03:14:09;;;;;;;5.47;0.90;;;;;;;8.20;100.00;91631.84;2113158;27;20027;-85
2023/10/28 03:15:10;;;;;;;5.47;0.70;;;;;;;8.30;100.00;91637.97;2113401;28;20028;-84
2023/10/28 03:16:12;;;;;;;4.72;0.73;;;;;;;8.24;100.00;91632.47;2104816;28;20085;-82
2023/10/28 03:17:12;;;;;;;2.67;0.60;;;;;;;8.16;100.00;91641.88;2104684;28;20028;-84
2023/10/28 03:18:13;;;;;;;2.40;0.90;;;;;;;8.09;100.00;91644.81;2104557;28;20051;-84
2023/10/28 03:19:14;;;;;;;4.63;0.70;;;;;;;8.07;100.00;91647.91;2113349;27;20149;-84
2023/10/28 03:20:19;;;;;;;2.80;0.60;;;;;;;8.02;100.00;91653.78;2110471;28;20015;-84
2023/10/28 03:21:20;;;;;;;2.60;0.73;;;;;;;8.12;100.00;91653.84;2110687;27;20426;-83
2023/10/28 03:22:21;;;;;;;5.70;1.00;;;;;;;8.18;100.00;91650.19;2115283;28;20028;-84
2023/10/28 03:23:22;;;;;;;2.25;0.75;;;;;;;8.13;100.00;91655.34;2108182;28;20043;-82
2023/10/28 03:24:23;;;;;;;3.15;0.80;;;;;;;7.98;100.00;91655.09;2104389;28;20024;-83
2023/10/28 03:25:24;;;;;;;3.30;1.13;;;;;;;7.96;100.00;91658.19;2103172;28;20408;-81
2023/10/28 03:26:25;;;;;;;1.65;0.70;;;;;;;7.96;100.00;91660.13;2104041;28;20028;-86
2023/10/28 03:27:26;;;;;;;3.88;0.70;;;;;;;7.95;100.00;91653.31;2104636;28;20021;-85
2023/10/28 03:28:28;;;;;;;2.00;0.82;;;;;;;7.88;100.00;91656.22;2104368;28;20095;-84
2023/10/28 03:29:29;;;;;;;3.00;0.63;;;;;;;7.99;100.00;91656.56;2111700;27;20457;-82
2023/10/28 03:30:30;;;;;;;4.10;0.73;;;;;;;8.16;100.00;91654.44;2116325;28;20024;-83
2023/10/28 03:31:31;;;;;;;3.67;0.68;;;;;;;8.21;100.00;91659.97;2105596;28;20032;-85
2023/10/28 03:32:32;;;;;;;2.60;0.60;;;;;;;8.37;100.00;91652.97;2113015;28;20051;-84
2023/10/28 03:33:33;;;;;;;3.40;0.70;;;;;;;8.48;100.00;91643.41;2113094;28;20016;-86
2023/10/28 03:34:34;;;;;;;3.75;1.08;;;;;;;8.55;100.00;91650.38;2111199;28;20027;-83
2023/10/28 03:35:35;;;;;;;3.80;0.88;;;;;;;8.48;100.00;91651.41;2097755;28;20024;-84
2023/10/28 03:36:36;;;;;;;1.55;0.68;;;;;;;8.38;100.00;91655.19;2107461;28;20117;-85
2023/10/28 03:37:37;;;;;;;2.38;0.70;;;;;;;8.52;100.00;91645.94;2107407;28;20016;-84
2023/10/28 03:38:39;;;;;;;2.40;0.70;;;;;;;8.58;100.00;91641.50;2099030;28;20110;-84
2023/10/28 03:39:39;;;;;;;5.43;0.70;;;;;;;8.49;100.00;91652.13;2099097;28;20020;-84
2023/10/28 03:40:40;;;;;;;6.63;0.93;;;;;;;8.47;100.00;91641.16;2099039;28;20111;-83
2023/10/28 03:41:41;;;;;;;3.03;0.60;;;;;;;8.23;100.00;91644.28;2098996;28;20016;-83
2023/10/28 03:42:42;;;;;;;1.98;0.70;;;;;;;8.23;100.00;91651.53;2098854;28;20638;-83
2023/10/28 03:43:58;;;;;;;2.55;0.50;;;;;;;8.33;100.00;91653.06;2107248;28;20020;-82
2023/10/28 03:44:59;;;;;;;1.80;0.60;;;;;;;8.17;100.00;91646.03;2095005;28;20021;-84
2023/10/28 03:46:01;;;;;;;4.20;0.70;;;;;;;8.08;100.00;91657.38;2099193;28;20027;-82
2023/10/28 03:47:03;;;;;;;2.88;1.13;;;;;;;7.99;100.00;91651.25;2106412;28;20494;-83
2023/10/28 03:48:04;;;;;;;3.45;0.80;;;;;;;8.19;100.00;91664.22;2107295;28;20028;-80
2023/10/28 03:49:05;;;;;;;1.88;0.63;;;;;;;8.08;100.00;91659.31;2107574;27;20106;-86
2023/10/28 03:50:07;;;;;;;3.38;0.70;;;;;;;8.16;100.00;91654.44;2115075;28;20031;-84
2023/10/28 03:51:08;;;;;;;3.35;0.52;;;;;;;8.18;100.00;91646.78;2115952;28;20023;-83
2023/10/28 03:52:10;;;;;;;1.30;0.75;;;;;;;8.13;100.00;91650.03;2114158;28;20349;-81
2023/10/28 03:53:11;;;;;;;1.45;0.60;;;;;;;8.19;100.00;91645.59;2104306;28;20124;-86
2023/10/28 03:54:13;;;;;;;1.88;0.57;;;;;;;8.21;100.00;91649.31;2098817;28;20433;-84
2023/10/28 03:55:14;;;;;;;3.92;0.70;;;;;;;8.44;100.00;91647.38;2101613;28;20027;-84
2023/10/28 03:56:15;;;;;;;6.28;1.08;;;;;;;8.21;100.00;91646.66;2096375;28;20025;-84
2023/10/28 03:57:16;;;;;;;5.53;0.85;;;;;;;8.32;100.00;91641.66;2107159;28;20024;-82
2023/10/28 03:58:17;;;;;;;4.25;0.60;;;;;;;8.20;100.00;91639.84;2107300;28;20024;-84
2023/10/28 03:59:19;;;;;;;2.08;0.70;;;;;;;8.23;100.00;91648.88;2100011;28;20233;-84
2023/10/28 04:00:20;;;;;;;2.15;0.60;;;;;;;8.19;100.00;91643.69;2100707;28;20050;-85
2023/10/28 04:01:21;;;;;;;3.90;1.38;;;;;;;8.35;100.00;91644.66;2099268;28;20024;-81
2023/10/28 04:02:23;;;;;;;5.63;2.00;;;;;;;8.41;100.00;91640.25;2107851;27;20024;-83
2023/10/28 04:03:24;;;;;;;9.18;1.15;;;;;;;8.40;100.00;91644.84;2098992;28;20028;-82
2023/10/28 04:04:25;;;;;;;4.03;1.20;;;;;;;8.53;100.00;91636.75;2090524;28;20021;-83
2023/10/28 04:05:26;;;;;;;3.65;1.00;;;;;;;8.49;100.00;91636.88;2107380;28;20517;-82
2023/10/28 04:06:27;;;;;;;3.10;1.10;;;;;;;8.48;100.00;91640.75;2111811;28;20019;-83
2023/10/28 04:07:28;;;;;;;4.53;0.85;;;;;;;8.51;100.00;91634.53;2099208;28;20048;-81
2023/10/28 04:08:29;;;;;;;3.60;0.90;;;;;;;8.41;100.00;91645.59;2107423;28;20028;-82
2023/10/28 04:09:30;;;;;;;1.50;0.50;;;;;;;8.34;100.00;91646.56;2090643;28;20048;-82
2023/10/28 04:10:31;;;;;;;2.47;0.60;;;;;;;8.40;100.00;91641.44;2090816;28;20032;-85
2023/10/28 04:11:32;;;;;;;2.95;0.57;;;;;;;8.34;100.00;91641.25;2097959;28;20027;-85
2023/10/28 04:12:33;;;;;;;4.40;0.50;;;;;;;8.41;100.00;91643.66;2099109;28;20051;-85
2023/10/28 04:13:34;;;;;;;1.88;0.60;;;;;;;8.57;100.00;91643.44;2091036;28;20048;-83
2023/10/28 04:14:35;;;;;;;2.20;0.68;;;;;;;8.51;100.00;91641.78;2090552;28;20033;-83
2023/10/28 04:15:37;;;;;;;3.83;0.82;;;;;;;8.45;100.00;91646.94;2107392;28;20031;-82
2023/10/28 04:16:38;;;;;;;3.03;0.90;;;;;;;8.60;100.00;91646.38;2107342;28;20531;-85
2023/10/28 04:17:39;;;;;;;3.25;0.90;;;;;;;8.53;100.00;91645.50;2107051;28;20028;-83
2023/10/28 04:18:40;;;;;;;3.83;0.75;;;;;;;8.63;100.00;91632.19;2106962;28;20074;-84
2023/10/28 04:19:41;;;;;;;6.68;0.70;;;;;;;8.64;100.00;91644.34;2099003;28;20016;-83
2023/10/28 04:20:42;;;;;;;2.72;0.80;;;;;;;8.48;100.00;91643.41;2105672;28;20089;-82
2023/10/28 04:21:43;;;;;;;3.33;0.85;;;;;;;8.34;100.00;91646.56;2107480;28;20424;-84
2023/10/28 04:22:44;;;;;;;3.40;1.00;;;;;;;8.18;100.00;91647.53;2115956;28;20411;-81
2023/10/28 04:23:45;;;;;;;2.25;0.68;;;;;;;8.38;100.00;91655.19;2111554;28;20043;-83
2023/10/28 04:24:46;;;;;;;4.60;0.73;;;;;;;8.29;100.00;91642.53;2104405;28;20020;-83
2023/10/28 04:25:47;;;;;;;4.85;0.80;;;;;;;8.30;100.00;91648.63;2098807;28;20115;-82
2023/10/28 04:26:48;;;;;;;3.80;1.02;;;;;;;8.20;100.00;91647.81;2104914;28;20016;-85
2023/10/28 04:27:50;;;;;;;2.70;0.60;;;;;;;8.28;100.00;91646.38;2109437;28;20024;-84
2023/10/28 04:28:51;;;;;;;4.25;0.60;;;;;;;8.17;100.00;91650.63;2113211;28;20027;-85
2023/10/28 04:29:52;;;;;;;3.70;0.80;;;;;;;8.07;100.00;91645.22;2118132;27;20034;-85
2023/10/28 04:30:59;;;;;;;5.03;0.75;;;;;;;7.98;100.00;91639.88;2115299;28;20479;-84
2023/10/28 04:32:00;;;;;;;4.43;1.10;;;;;;;7.93;100.00;91656.38;2092106;28;20028;-84
2023/10/28 04:33:03;;;;;;;3.33;0.70;;;;;;;7.97;100.00;91650.94;2091493;28;20048;-82
2023/10/28 04:34:05;;;;;;;5.50;0.90;;;;;;;8.03;100.00;91643.88;2099158;28;20035;-82
2023/10/28 04:35:06;;;;;;;3.40;0.93;;;;;;;7.89;100.00;91650.44;2101865;28;20027;-82
2023/10/28 04:36:10;;;;;;;6.85;1.10;;;;;;;8.04;100.00;91654.09;2105873;28;20460;-84
2023/10/28 04:37:12;;;;;;;4.40;0.75;;;;;;;7.97;100.00;91643.72;2098719;28;20020;-82
2023/10/28 04:38:13;;;;;;;2.47;0.70;;;;;;;7.94;100.00;91651.81;2090278;28;20017;-85
2023/10/28 04:39:14;;;;;;;2.30;0.63;;;;;;;7.94;100.00;91649.16;2096874;28;20493;-84
2023/10/28 04:40:15;;;;;;;3.20;0.80;;;;;;;7.87;100.00;91655.47;2098502;28;20098;-83
2023/10/28 04:41:16;;;;;;;4.05;0.77;;;;;;;7.91;100.00;91656.09;2106686;28;20020;-84
2023/10/28 04:42:18;;;;;;;1.55;0.65;;;;;;;7.83;100.00;91652.19;2106652;28;20028;-84
2023/10/28 04:43:20;;;;;;;4.90;0.80;;;;;;;8.06;100.00;91648.34;2110950;28;20050;-85
2023/10/28 04:44:21;;;;;;;3.67;0.50;;;;;;;8.01;100.00;91649.66;2098395;28;20112;-82
2023/10/28 04:45:22;;;;;;;5.35;0.80;;;;;;;8.05;100.00;91650.25;2092972;28;20108;-82
2023/10/28 04:46:23;;;;;;;1.95;0.77;;;;;;;8.13;100.00;91653.41;2114690;28;20030;-83
2023/10/28 04:47:26;;;;;;;1.95;0.77;;;;;;;8.08;100.00;91649.41;2106494;28;20051;-80
2023/10/28 04:48:28;;;;;;;1.45;0.60;;;;;;;8.02;100.00;91651.13;2090719;28;20382;-86
2023/10/28 04:49:29;;;;;;;2.60;1.35;;;;;;;8.21;100.00;91654.66;2095024;28;20021;-82
2023/10/28 04:50:30;;;;;;;1.67;0.43;;;;;;;8.39;100.00;91647.94;2095245;28;20397;-83
2023/10/28 04:51:31;;;;;;;2.53;0.60;;;;;;;8.35;100.00;91649.97;2103228;28;20032;-85